Time;durP1;ratioP1;P1;durP2;ratioP2;P2;SDS_P1;SDS_P2;PMS_P1;PMS_P2;Temp;Humidity;BMP_temperature;BMP_pressure;BME280_temperature;BME280_humidity;BME280_pressure;Samples;Min_cycle;Max_cycle;Signal;HPM_P1;HPM_P2
2021/12/03 00:00:13;;;;;;;;;;;20.50;53.70;;;;;;5011384;28;1390;-71
2021/12/03 00:02:39;;;;;;;;;;;20.50;53.80;;;;;;4994747;28;1582;-71
2021/12/03 00:05:04;;;;;;;;;;;20.50;53.80;;;;;;4998937;28;1215;-72
2021/12/03 00:07:30;;;;;;;;;;;20.40;53.80;;;;;;4992481;28;1370;-70
2021/12/03 00:09:57;;;;;;;;;;;20.40;53.80;;;;;;4993287;28;1299;-70
2021/12/03 00:12:22;;;;;;;;;;;20.40;53.90;;;;;;5009705;28;1981;-71
2021/12/03 00:14:47;;;;;;;;;;;20.40;54.00;;;;;;4998760;28;1124;-71
2021/12/03 00:17:13;;;;;;;;;;;20.40;54.00;;;;;;4992792;28;1357;-70
2021/12/03 00:19:38;;;;;;;;;;;20.40;54.10;;;;;;5003884;28;1124;-70
2021/12/03 00:22:04;;;;;;;;;;;20.40;54.00;;;;;;5008940;28;1428;-71
2021/12/03 00:24:29;;;;;;;;;;;20.40;54.10;;;;;;5012074;28;1616;-70
2021/12/03 00:26:55;;;;;;;;;;;20.40;54.20;;;;;;4993484;28;1268;-71
2021/12/03 00:29:20;;;;;;;;;;;20.40;54.20;;;;;;4993146;28;1263;-71
2021/12/03 00:31:45;;;;;;;;;;;20.40;54.20;;;;;;4991662;28;1894;-71
2021/12/03 00:34:11;;;;;;;;;;;20.30;54.20;;;;;;4992324;28;1287;-71
2021/12/03 00:36:36;;;;;;;;;;;20.40;54.30;;;;;;5009477;28;1283;-71
2021/12/03 00:39:02;;;;;;;;;;;20.30;54.30;;;;;;5000192;28;1103;-70
2021/12/03 00:41:32;;;;;;;;;;;20.40;54.40;;;;;;4992037;28;1281;-71
2021/12/03 00:43:57;;;;;;;;;;;20.30;54.30;;;;;;4993089;28;1089;-71
2021/12/03 00:46:23;;;;;;;;;;;20.30;54.30;;;;;;4995488;28;1351;-71
2021/12/03 00:48:52;;;;;;;;;;;20.30;54.30;;;;;;4996102;28;1052;-71
2021/12/03 00:51:18;;;;;;;;;;;20.30;54.40;;;;;;4994922;28;1971;-72
2021/12/03 00:53:44;;;;;;;;;;;20.30;54.40;;;;;;4995581;28;1056;-71
2021/12/03 00:56:09;;;;;;;;;;;20.30;54.40;;;;;;5013763;28;1321;-71
2021/12/03 00:58:34;;;;;;;;;;;20.30;54.50;;;;;;5002429;28;1172;-71
2021/12/03 01:01:00;;;;;;;;;;;20.30;54.50;;;;;;4995089;28;1174;-71
2021/12/03 01:03:25;;;;;;;;;;;20.30;54.50;;;;;;4995867;28;1334;-71
2021/12/03 01:05:51;;;;;;;;;;;20.30;54.50;;;;;;4995310;28;1232;-71
2021/12/03 01:08:16;;;;;;;;;;;20.30;54.60;;;;;;4995739;28;1087;-71
2021/12/03 01:10:42;;;;;;;;;;;20.30;54.60;;;;;;4995217;28;1183;-72
2021/12/03 01:13:07;;;;;;;;;;;20.30;54.60;;;;;;4994700;28;1894;-71
2021/12/03 01:15:33;;;;;;;;;;;20.30;54.50;;;;;;5011957;28;1294;-71
2021/12/03 01:17:59;;;;;;;;;;;20.30;54.60;;;;;;5002377;28;1310;-71
2021/12/03 01:20:25;;;;;;;;;;;20.30;54.50;;;;;;4999797;28;1048;-71
2021/12/03 01:22:51;;;;;;;;;;;20.30;54.50;;;;;;5011714;28;1080;-71
2021/12/03 01:25:16;;;;;;;;;;;20.30;54.50;;;;;;4995197;28;1284;-71
2021/12/03 01:27:41;;;;;;;;;;;20.30;54.50;;;;;;5005839;28;1092;-70
2021/12/03 01:30:08;;;;;;;;;;;20.30;54.50;;;;;;4996839;28;1093;-71
2021/12/03 01:32:33;;;;;;;;;;;20.30;54.50;;;;;;5014102;28;1894;-71
2021/12/03 01:34:58;;;;;;;;;;;20.30;54.50;;;;;;5013606;28;1371;-71
2021/12/03 01:37:24;;;;;;;;;;;20.30;54.50;;;;;;5029718;28;1332;-72
2021/12/03 01:39:49;;;;;;;;;;;20.40;54.60;;;;;;5014261;28;1216;-72
2021/12/03 01:42:15;;;;;;;;;;;20.40;54.50;;;;;;5029117;28;1269;-72
2021/12/03 01:44:40;;;;;;;;;;;20.40;54.50;;;;;;5014265;28;1162;-71
2021/12/03 01:47:06;;;;;;;;;;;20.40;54.50;;;;;;5014332;28;1361;-71
2021/12/03 01:49:31;;;;;;;;;;;20.40;54.60;;;;;;5014454;28;1401;-71
2021/12/03 01:51:56;;;;;;;;;;;20.40;54.60;;;;;;5013461;28;1965;-70
2021/12/03 01:54:22;;;;;;;;;;;20.40;54.60;;;;;;5014383;28;1102;-71
2021/12/03 01:56:47;;;;;;;;;;;20.40;54.60;;;;;;5014409;28;1298;-71
2021/12/03 01:59:13;;;;;;;;;;;20.40;54.60;;;;;;5014376;28;1267;-70
2021/12/03 02:01:38;;;;;;;;;;;20.40;54.60;;;;;;5014456;28;1063;-72
2021/12/03 02:04:04;;;;;;;;;;;20.40;54.60;;;;;;5014075;28;1334;-71
2021/12/03 02:06:29;;;;;;;;;;;20.40;54.60;;;;;;5014197;28;1289;-71
2021/12/03 02:08:55;;;;;;;;;;;20.40;54.70;;;;;;5014555;28;1060;-71
2021/12/03 02:11:20;;;;;;;;;;;20.30;54.60;;;;;;5013731;28;1969;-71
2021/12/03 02:13:46;;;;;;;;;;;20.30;54.60;;;;;;4994809;28;1120;-71
2021/12/03 02:16:12;;;;;;;;;;;20.40;54.70;;;;;;5005429;28;1284;-71
2021/12/03 02:18:37;;;;;;;;;;;20.30;54.70;;;;;;5013764;28;1092;-71
2021/12/03 02:21:03;;;;;;;;;;;20.30;54.70;;;;;;5013169;28;1351;-71
2021/12/03 02:23:28;;;;;;;;;;;20.30;54.70;;;;;;5006535;28;1280;-72
2021/12/03 02:25:54;;;;;;;;;;;20.30;54.70;;;;;;5003791;28;1263;-71
2021/12/03 02:28:21;;;;;;;;;;;20.40;54.80;;;;;;5013526;28;1275;-71
2021/12/03 02:30:46;;;;;;;;;;;20.30;54.70;;;;;;5013588;28;1265;-71
2021/12/03 02:33:12;;;;;;;;;;;20.40;54.70;;;;;;5013292;28;1894;-72
2021/12/03 02:35:40;;;;;;;;;;;20.30;54.70;;;;;;5013398;28;1362;-71
2021/12/03 02:38:05;;;;;;;;;;;20.30;54.70;;;;;;4994874;28;1228;-71
2021/12/03 02:40:31;;;;;;;;;;;20.30;54.70;;;;;;5003298;28;1084;-71
2021/12/03 02:42:56;;;;;;;;;;;20.30;54.80;;;;;;5013482;28;1142;-71
2021/12/03 02:45:22;;;;;;;;;;;20.40;54.80;;;;;;5013311;28;1264;-71
2021/12/03 02:47:47;;;;;;;;;;;20.30;54.80;;;;;;5013389;28;1350;-70
2021/12/03 02:50:13;;;;;;;;;;;20.30;54.80;;;;;;5012205;28;1069;-71
2021/12/03 02:52:38;;;;;;;;;;;20.30;54.80;;;;;;4999125;28;1902;-71
2021/12/03 02:55:04;;;;;;;;;;;20.30;54.90;;;;;;5003701;28;1072;-72
2021/12/03 02:57:29;;;;;;;;;;;20.30;54.90;;;;;;4993852;28;1346;-71
2021/12/03 02:59:55;;;;;;;;;;;20.30;54.90;;;;;;4985697;28;1294;-71
2021/12/03 03:02:20;;;;;;;;;;;20.30;54.90;;;;;;4996301;28;1364;-71
2021/12/03 03:04:46;;;;;;;;;;;20.30;54.90;;;;;;5001678;28;1144;-72
2021/12/03 03:07:11;;;;;;;;;;;20.30;55.00;;;;;;5024699;28;1424;-71
2021/12/03 03:09:36;;;;;;;;;;;20.30;55.00;;;;;;4993422;28;1345;-71
2021/12/03 03:12:02;;;;;;;;;;;20.30;55.00;;;;;;5004075;28;1898;-72
2021/12/03 03:14:27;;;;;;;;;;;20.30;55.00;;;;;;4993454;28;1107;-71
2021/12/03 03:16:53;;;;;;;;;;;20.30;55.10;;;;;;4993376;28;1288;-71
2021/12/03 03:19:19;;;;;;;;;;;20.30;55.10;;;;;;5000951;28;1073;-72
2021/12/03 03:21:45;;;;;;;;;;;20.30;55.10;;;;;;5011509;28;1336;-72
2021/12/03 03:24:10;;;;;;;;;;;20.30;55.20;;;;;;5003633;28;1084;-72
2021/12/03 03:26:36;;;;;;;;;;;20.30;55.20;;;;;;4992998;28;1374;-71
2021/12/03 03:29:04;;;;;;;;;;;20.30;55.20;;;;;;4993301;28;1264;-71
2021/12/03 03:31:29;;;;;;;;;;;20.20;55.20;;;;;;5005673;28;1870;-71
2021/12/03 03:33:54;;;;;;;;;;;20.20;55.20;;;;;;5000003;28;1167;-71
2021/12/03 03:36:20;;;;;;;;;;;20.20;55.20;;;;;;4999308;28;1228;-71
2021/12/03 03:38:45;;;;;;;;;;;20.30;55.30;;;;;;5004248;28;1134;-71
2021/12/03 03:41:11;;;;;;;;;;;20.20;55.20;;;;;;5005761;28;1373;-72
2021/12/03 03:43:36;;;;;;;;;;;20.20;55.20;;;;;;5003081;28;1075;-71
2021/12/03 03:46:02;;;;;;;;;;;20.20;55.20;;;;;;4992901;28;1188;-71
2021/12/03 03:48:27;;;;;;;;;;;20.20;55.30;;;;;;5001195;28;1151;-72
2021/12/03 03:50:52;;;;;;;;;;;20.20;55.30;;;;;;4996212;28;1313;-71
2021/12/03 03:53:18;;;;;;;;;;;20.20;55.30;;;;;;4992731;28;1902;-71
2021/12/03 03:55:45;;;;;;;;;;;20.20;55.30;;;;;;5007473;28;1699;-72
2021/12/03 03:58:10;;;;;;;;;;;20.20;55.30;;;;;;5001404;28;1282;-71
2021/12/03 04:00:37;;;;;;;;;;;20.20;55.30;;;;;;5007902;28;1186;-71
2021/12/03 04:03:03;;;;;;;;;;;20.30;55.30;;;;;;5011798;28;1040;-71
2021/12/03 04:05:28;;;;;;;;;;;20.20;55.30;;;;;;4998320;28;1308;-71
2021/12/03 04:07:54;;;;;;;;;;;20.20;55.30;;;;;;5001341;28;1347;-72
2021/12/03 04:10:19;;;;;;;;;;;20.20;55.30;;;;;;5005667;28;1068;-71
2021/12/03 04:12:44;;;;;;;;;;;20.20;55.30;;;;;;4992022;28;1907;-72
2021/12/03 04:15:10;;;;;;;;;;;20.20;55.30;;;;;;4992580;28;1356;-72
2021/12/03 04:17:35;;;;;;;;;;;20.20;55.30;;;;;;4993141;28;1005;-71
2021/12/03 04:20:01;;;;;;;;;;;20.20;55.40;;;;;;4996492;28;1099;-71
2021/12/03 04:22:26;;;;;;;;;;;20.20;55.40;;;;;;5017528;28;1132;-72
2021/12/03 04:24:52;;;;;;;;;;;20.20;55.40;;;;;;5013333;28;1012;-71
2021/12/03 04:27:18;;;;;;;;;;;20.20;55.40;;;;;;4996524;28;1284;-71
2021/12/03 04:29:43;;;;;;;;;;;20.20;55.40;;;;;;4995857;28;1319;-71
2021/12/03 04:32:08;;;;;;;;;;;20.20;55.40;;;;;;4995705;28;1968;-72
2021/12/03 04:34:34;;;;;;;;;;;20.20;55.40;;;;;;4995977;28;1096;-71
2021/12/03 04:37:00;;;;;;;;;;;20.20;55.50;;;;;;4996347;28;1182;-71
2021/12/03 04:39:25;;;;;;;;;;;20.20;55.50;;;;;;4995512;28;1207;-71
2021/12/03 04:41:51;;;;;;;;;;;20.20;55.50;;;;;;5003934;28;1135;-71
2021/12/03 04:44:16;;;;;;;;;;;20.20;55.50;;;;;;5001138;28;1198;-71
2021/12/03 04:46:41;;;;;;;;;;;20.20;55.50;;;;;;4995913;28;1214;-72
2021/12/03 04:49:07;;;;;;;;;;;20.20;55.50;;;;;;4995950;28;1251;-71
2021/12/03 04:51:32;;;;;;;;;;;20.20;55.60;;;;;;4995361;28;1990;-71
2021/12/03 04:53:58;;;;;;;;;;;20.20;55.60;;;;;;4996102;28;1275;-71
2021/12/03 04:56:23;;;;;;;;;;;20.20;55.60;;;;;;5002878;28;1392;-71
2021/12/03 04:58:49;;;;;;;;;;;20.20;55.60;;;;;;5000540;28;1687;-72
2021/12/03 05:01:14;;;;;;;;;;;20.20;55.60;;;;;;4995371;28;1285;-72
2021/12/03 05:03:40;;;;;;;;;;;20.20;55.60;;;;;;4993964;28;1227;-71
2021/12/03 05:06:08;;;;;;;;;;;20.20;55.60;;;;;;5003791;28;1279;-71
2021/12/03 05:08:34;;;;;;;;;;;20.20;55.60;;;;;;4999828;28;1241;-71
2021/12/03 05:10:59;;;;;;;;;;;20.20;55.70;;;;;;4995285;28;1902;-71
2021/12/03 05:13:26;;;;;;;;;;;20.20;56.20;;;;;;4995668;28;1284;-71
2021/12/03 05:15:51;;;;;;;;;;;20.20;55.70;;;;;;4997619;28;1371;-71
2021/12/03 05:18:17;;;;;;;;;;;20.30;55.80;;;;;;4999756;28;1103;-72
2021/12/03 05:20:43;;;;;;;;;;;20.30;55.70;;;;;;5002845;28;1084;-72
2021/12/03 05:23:08;;;;;;;;;;;20.40;55.60;;;;;;5011348;28;1259;-72
2021/12/03 05:25:34;;;;;;;;;;;20.40;55.50;;;;;;4995253;28;1373;-71
2021/12/03 05:27:59;;;;;;;;;;;20.50;55.40;;;;;;4995241;28;1052;-71
2021/12/03 05:30:25;;;;;;;;;;;20.50;55.20;;;;;;4994750;28;1115;-72
2021/12/03 05:32:50;;;;;;;;;;;20.60;55.10;;;;;;5006509;28;1962;-71
2021/12/03 05:35:16;;;;;;;;;;;20.60;54.90;;;;;;5001416;28;1293;-71
2021/12/03 05:37:41;;;;;;;;;;;20.70;54.90;;;;;;5000706;28;1131;-72
2021/12/03 05:40:07;;;;;;;;;;;20.80;54.70;;;;;;5001190;28;1065;-71
2021/12/03 05:42:33;;;;;;;;;;;20.80;54.60;;;;;;5013630;28;1174;-71
2021/12/03 05:44:58;;;;;;;;;;;20.80;54.50;;;;;;5014179;28;1343;-71
2021/12/03 05:47:24;;;;;;;;;;;20.90;54.40;;;;;;5014597;28;1553;-72
2021/12/03 05:49:49;;;;;;;;;;;20.90;54.30;;;;;;5014791;28;1205;-71
2021/12/03 05:52:15;;;;;;;;;;;20.90;54.30;;;;;;5013386;28;1973;-71
2021/12/03 05:54:40;;;;;;;;;;;20.90;54.20;;;;;;5014478;28;1044;-71
2021/12/03 05:57:06;;;;;;;;;;;21.00;54.20;;;;;;5013825;28;1343;-71
2021/12/03 05:59:31;;;;;;;;;;;21.00;54.10;;;;;;5014433;28;1346;-71
2021/12/03 06:01:56;;;;;;;;;;;21.00;54.20;;;;;;5013604;28;1139;-70
2021/12/03 06:04:22;;;;;;;;;;;21.00;54.20;;;;;;5014101;28;1087;-71
2021/12/03 06:06:47;;;;;;;;;;;21.00;54.10;;;;;;4999658;28;1251;-71
2021/12/03 06:09:13;;;;;;;;;;;21.00;54.00;;;;;;5013541;28;1296;-72
2021/12/03 06:11:38;;;;;;;;;;;21.00;54.10;;;;;;5013440;28;1891;-71
2021/12/03 06:14:04;;;;;;;;;;;21.00;54.00;;;;;;5013926;28;1159;-71
2021/12/03 06:16:29;;;;;;;;;;;21.00;54.00;;;;;;5013408;28;1287;-71
2021/12/03 06:18:55;;;;;;;;;;;21.00;54.10;;;;;;5013854;28;1178;-70
2021/12/03 06:21:20;;;;;;;;;;;21.00;54.00;;;;;;5011563;28;1440;-71
2021/12/03 06:23:46;;;;;;;;;;;21.00;54.00;;;;;;5007727;28;1309;-71
2021/12/03 06:26:12;;;;;;;;;;;21.00;54.00;;;;;;5004654;28;1367;-72
2021/12/03 06:28:38;;;;;;;;;;;21.00;54.00;;;;;;5009507;23;2039;-67
2021/12/03 06:31:03;;;;;;;;;;;21.00;54.10;;;;;;5013574;28;1914;-67
2021/12/03 06:33:29;;;;;;;;;;;21.00;54.10;;;;;;5012835;28;1120;-67
2021/12/03 06:35:54;;;;;;;;;;;21.00;54.70;;;;;;5005187;28;1907;-69
2021/12/03 06:38:20;;;;;;;;;;;21.00;54.10;;;;;;5008266;28;2294;-69
2021/12/03 06:40:45;;;;;;;;;;;21.00;54.10;;;;;;4992412;28;1136;-67
2021/12/03 06:43:10;;;;;;;;;;;21.00;54.20;;;;;;4989680;28;1816;-67
2021/12/03 06:45:36;;;;;;;;;;;21.00;54.20;;;;;;4993478;28;1185;-68
2021/12/03 06:48:02;;;;;;;;;;;21.00;54.20;;;;;;4989953;28;1904;-68
2021/12/03 06:50:29;;;;;;;;;;;21.00;54.30;;;;;;4992569;28;1059;-68
2021/12/03 06:53:01;;;;;;;;;;;21.00;54.80;;;;;;4993368;28;1969;-69
2021/12/03 06:55:27;;;;;;;;;;;21.00;54.30;;;;;;4992933;28;1309;-70
2021/12/03 06:57:53;;;;;;;;;;;20.90;54.20;;;;;;4994219;28;1017;-69
2021/12/03 07:00:18;;;;;;;;;;;20.90;54.20;;;;;;4992604;28;1190;-68
2021/12/03 07:02:43;;;;;;;;;;;20.90;54.30;;;;;;4993700;28;1291;-68
2021/12/03 07:05:09;;;;;;;;;;;20.90;54.30;;;;;;4993939;28;1057;-66
2021/12/03 07:07:34;;;;;;;;;;;20.90;53.90;;;;;;4992358;28;1294;-66
2021/12/03 07:10:00;;;;;;;;;;;20.90;50.00;;;;;;4988998;28;2146;-69
2021/12/03 07:12:26;;;;;;;;;;;20.90;50.10;;;;;;4992065;28;1910;-69
2021/12/03 07:14:51;;;;;;;;;;;20.80;49.80;;;;;;4988911;28;1564;-67
2021/12/03 07:17:17;;;;;;;;;;;20.80;49.60;;;;;;4992043;28;1229;-67
2021/12/03 07:19:42;;;;;;;;;;;20.80;49.70;;;;;;4993442;28;1377;-67
2021/12/03 07:22:08;;;;;;;;;;;20.80;49.80;;;;;;4980485;28;1794;-68
2021/12/03 07:24:34;;;;;;;;;;;20.80;50.00;;;;;;4993457;28;1131;-68
2021/12/03 07:26:59;;;;;;;;;;;20.80;50.20;;;;;;4993492;28;1215;-68
2021/12/03 07:29:25;;;;;;;;;;;20.80;50.50;;;;;;4992968;28;1310;-68
2021/12/03 07:31:50;;;;;;;;;;;20.80;50.80;;;;;;4991787;28;1902;-68
2021/12/03 07:34:16;;;;;;;;;;;20.80;51.00;;;;;;4992188;28;1293;-68
2021/12/03 07:36:41;;;;;;;;;;;20.80;51.20;;;;;;4993257;28;1324;-68
2021/12/03 07:39:07;;;;;;;;;;;20.80;51.40;;;;;;4991974;28;1295;-68
2021/12/03 07:41:32;;;;;;;;;;;20.80;51.50;;;;;;4993019;28;1353;-68
2021/12/03 07:43:57;;;;;;;;;;;20.80;51.70;;;;;;5008356;28;1514;-68
2021/12/03 07:46:23;;;;;;;;;;;20.80;51.80;;;;;;4993371;28;1358;-68
2021/12/03 07:48:49;;;;;;;;;;;20.80;52.00;;;;;;4991510;28;1369;-68
2021/12/03 07:51:15;;;;;;;;;;;20.80;52.30;;;;;;4982964;28;1963;-69
2021/12/03 07:53:40;;;;;;;;;;;20.80;52.40;;;;;;4987638;28;1261;-69
2021/12/03 07:56:08;;;;;;;;;;;20.90;52.40;;;;;;4989566;28;1146;-68
2021/12/03 07:58:33;;;;;;;;;;;21.10;52.40;;;;;;4988395;28;1327;-68
2021/12/03 08:00:59;;;;;;;;;;;21.20;52.40;;;;;;4992439;28;1074;-68
2021/12/03 08:03:24;;;;;;;;;;;21.20;52.20;;;;;;4988123;28;1225;-68
2021/12/03 08:05:50;;;;;;;;;;;21.40;52.20;;;;;;4987957;28;1422;-68
2021/12/03 08:08:21;;;;;;;;;;;21.50;52.20;;;;;;4986743;28;1328;-68
2021/12/03 08:10:47;;;;;;;;;;;21.70;52.20;;;;;;4989228;28;1328;-67
2021/12/03 08:13:12;;;;;;;;;;;21.80;52.40;;;;;;4987745;28;1898;-68
2021/12/03 08:15:38;;;;;;;;;;;21.90;52.20;;;;;;4988508;28;1291;-68
2021/12/03 08:18:06;;;;;;;;;;;22.00;52.00;;;;;;4987199;28;1687;-68
2021/12/03 08:20:31;;;;;;;;;;;22.10;52.00;;;;;;4987174;28;1232;-68
2021/12/03 08:22:57;;;;;;;;;;;22.20;51.80;;;;;;4989354;28;1503;-68
2021/12/03 08:25:22;;;;;;;;;;;22.30;51.70;;;;;;4997115;28;1589;-68
2021/12/03 08:27:48;;;;;;;;;;;22.40;51.70;;;;;;4997094;28;1367;-68
2021/12/03 08:30:13;;;;;;;;;;;22.40;51.60;;;;;;4996674;28;1588;-69
2021/12/03 08:32:40;;;;;;;;;;;22.50;51.60;;;;;;4996487;28;1898;-69
2021/12/03 08:35:06;;;;;;;;;;;22.50;51.60;;;;;;4995560;28;2173;-69
2021/12/03 08:37:31;;;;;;;;;;;22.50;51.60;;;;;;4997068;28;1612;-69
2021/12/03 08:39:57;;;;;;;;;;;22.60;51.60;;;;;;4996623;28;1708;-68
2021/12/03 08:42:22;;;;;;;;;;;22.60;51.70;;;;;;4996368;28;1562;-67
2021/12/03 08:44:48;;;;;;;;;;;22.60;51.70;;;;;;4996547;28;1802;-68
2021/12/03 08:47:13;;;;;;;;;;;22.60;51.80;;;;;;4996670;28;1506;-68
2021/12/03 08:49:47;;;;;;;;;;;22.60;51.90;;;;;;4996162;28;1672;-69
2021/12/03 08:52:32;;;;;;;;;;;22.60;52.00;;;;;;4996308;28;1898;-68
2021/12/03 08:54:57;;;;;;;;;;;22.60;52.20;;;;;;4996421;28;1345;-68
2021/12/03 08:57:24;;;;;;;;;;;22.60;52.20;;;;;;4996753;28;1416;-68
2021/12/03 08:59:53;;;;;;;;;;;22.60;52.30;;;;;;4995118;28;1463;-68
2021/12/03 09:02:19;;;;;;;;;;;22.60;52.50;;;;;;4994727;28;1725;-68
2021/12/03 09:04:45;;;;;;;;;;;22.60;52.50;;;;;;4994308;28;1380;-68
2021/12/03 09:07:10;;;;;;;;;;;22.50;52.60;;;;;;4996359;28;1659;-68
2021/12/03 09:09:35;;;;;;;;;;;22.60;52.70;;;;;;4993926;28;2084;-67
2021/12/03 09:12:01;;;;;;;;;;;22.60;52.80;;;;;;4995650;28;1894;-67
2021/12/03 09:14:47;;;;;;;;;;;22.50;52.90;;;;;;4992108;28;2280;-66
2021/12/03 09:17:27;;;;;;;;;;;22.50;52.90;;;;;;4994471;28;1662;-67
2021/12/03 09:20:00;;;;;;;;;;;22.50;53.10;;;;;;4995883;28;1442;-67
2021/12/03 09:22:41;;;;;;;;;;;22.40;53.10;;;;;;4995777;28;1257;-67
2021/12/03 09:25:07;;;;;;;;;;;22.40;53.30;;;;;;4995832;28;1089;-67
2021/12/03 09:27:35;;;;;;;;;;;22.40;53.60;;;;;;4994817;28;1607;-67
2021/12/03 09:30:02;;;;;;;;;;;22.40;53.50;;;;;;4995539;28;1793;-67
2021/12/03 09:32:31;;;;;;;;;;;22.40;53.60;;;;;;4994063;28;1954;-67
2021/12/03 09:34:56;;;;;;;;;;;22.40;53.80;;;;;;4994516;28;1722;-67
2021/12/03 09:37:21;;;;;;;;;;;22.30;54.00;;;;;;4995708;28;1682;-67
2021/12/03 09:39:47;;;;;;;;;;;22.30;54.10;;;;;;4995380;28;1705;-67
2021/12/03 09:42:14;;;;;;;;;;;22.30;54.20;;;;;;4995377;28;1628;-67
2021/12/03 09:44:40;;;;;;;;;;;22.30;54.30;;;;;;4995410;28;1402;-67
2021/12/03 09:47:06;;;;;;;;;;;22.30;55.00;;;;;;4994410;28;1395;-67
2021/12/03 09:49:38;;;;;;;;;;;22.30;54.40;;;;;;4995373;28;1560;-67
2021/12/03 09:52:29;;;;;;;;;;;22.30;54.60;;;;;;4995046;28;1956;-67
2021/12/03 09:55:00;;;;;;;;;;;22.30;54.80;;;;;;4995535;28;1596;-67
2021/12/03 09:57:36;;;;;;;;;;;22.20;54.70;;;;;;4995341;28;1515;-67
2021/12/03 10:00:13;;;;;;;;;;;22.20;54.70;;;;;;4995307;28;1643;-67
2021/12/03 10:06:06;;;;;;;;;;;22.20;54.80;;;;;;4994590;28;1861;-67
2021/12/03 10:09:44;;;;;;;;;;;22.20;54.90;;;;;;4988109;28;1510;-67
2021/12/03 10:11:47;;;;;;;;;;;22.20;54.90;;;;;;4989761;28;1466;-68
2021/12/03 10:19:48;;;;;;;;;;;22.10;55.20;;;;;;4993248;28;1693;-67
2021/12/03 10:28:11;;;;;;;;;;;22.10;55.30;;;;;;4993726;28;1669;-67
2021/12/03 10:31:03;;;;;;;;;;;22.10;55.40;;;;;;4990484;28;1702;-68
2021/12/03 10:46:38;;;;;;;;;;;22.10;55.60;;;;;;4983012;28;1621;-66
2021/12/03 10:52:19;;;;;;;;;;;22.00;55.60;;;;;;4992712;28;1966;-67
2021/12/03 10:55:07;;;;;;;;;;;22.10;55.70;;;;;;4994044;28;1336;-67
2021/12/03 11:06:01;;;;;;;;;;;22.20;55.80;;;;;;4994168;28;1384;-68
2021/12/03 11:11:36;;;;;;;;;;;22.20;55.70;;;;;;4993601;28;1401;-68
2021/12/03 11:15:01;;;;;;;;;;;22.20;55.60;;;;;;4992699;28;1656;-68
2021/12/03 11:28:43;;;;;;;;;;;22.20;55.80;;;;;;4993304;28;1688;-68
2021/12/03 11:37:03;;;;;;;;;;;22.20;56.00;;;;;;4974068;28;1727;-69
2021/12/03 11:42:58;;;;;;;;;;;22.20;56.20;;;;;;4991841;28;1433;-68
2021/12/03 11:57:00;;;;;;;;;;;22.10;56.20;;;;;;4992435;28;719;-67
2021/12/03 12:05:54;;;;;;;;;;;22.10;56.40;;;;;;4993678;28;1319;-66
2021/12/03 12:10:35;;;;;;;;;;;22.10;56.40;;;;;;4992918;28;1570;-67
2021/12/03 12:55:35;;;;;;;;;;;22.20;56.70;;;;;;5016405;28;1630;-71
2021/12/03 12:58:12;;;;;;;;;;;22.30;56.70;;;;;;5001763;28;1674;-72
2021/12/03 13:06:49;;;;;;;;;;;22.30;56.20;;;;;;5001778;28;1348;-71
2021/12/03 13:09:03;;;;;;;;;;;22.30;51.20;;;;;;5003810;28;1654;-71
2021/12/03 13:31:04;;;;;;;;;;;21.80;44.60;;;;;;5005237;28;1415;-70
2021/12/03 13:39:11;;;;;;;;;;;21.60;44.10;;;;;;5000328;28;1096;-70
2021/12/03 13:56:17;;;;;;;;;;;21.60;46.10;;;;;;5007168;28;1297;-71
2021/12/03 14:05:27;;;;;;;;;;;21.60;48.10;;;;;;5008710;28;1356;-71
2021/12/03 14:29:24;;;;;;;;;;;21.50;49.60;;;;;;4990850;28;1257;-71
2021/12/03 14:42:22;;;;;;;;;;;21.50;50.30;;;;;;4991489;28;1272;-72
2021/12/03 14:52:52;;;;;;;;;;;21.40;50.70;;;;;;5006108;28;1910;-68
2021/12/03 14:55:25;;;;;;;;;;;21.40;50.90;;;;;;5004729;28;1430;-70
2021/12/03 14:57:57;;;;;;;;;;;21.40;51.00;;;;;;4993233;28;1389;-70
2021/12/03 15:00:28;;;;;;;;;;;21.40;51.10;;;;;;4993686;28;1267;-69
2021/12/03 15:03:18;;;;;;;;;;;21.40;51.10;;;;;;4983597;28;1308;-71
2021/12/03 15:08:13;;;;;;;;;;;21.30;51.30;;;;;;5004651;28;1102;-72
2021/12/03 15:11:05;;;;;;;;;;;21.30;51.40;;;;;;5005191;28;1692;-71
2021/12/03 15:13:48;;;;;;;;;;;21.30;51.50;;;;;;5006604;28;1956;-71
2021/12/03 15:21:55;;;;;;;;;;;21.30;51.90;;;;;;5005520;28;1313;-71
2021/12/03 15:35:20;;;;;;;;;;;21.30;51.90;;;;;;4992564;28;1364;-71
2021/12/03 15:38:06;;;;;;;;;;;21.30;51.90;;;;;;5005067;28;1285;-72
2021/12/03 16:08:02;;;;;;;;;;;21.20;52.30;;;;;;5010766;28;1218;-71
2021/12/03 16:10:42;;;;;;;;;;;21.20;52.30;;;;;;4996327;28;1273;-72
2021/12/03 16:19:06;;;;;;;;;;;21.20;52.50;;;;;;5010038;28;1156;-71
2021/12/03 16:46:16;;;;;;;;;;;21.20;52.80;;;;;;4996432;28;1358;-73
2021/12/03 16:52:00;;;;;;;;;;;21.20;52.90;;;;;;4996434;28;1378;-71
2021/12/03 16:54:07;;;;;;;;;;;21.20;52.90;;;;;;5002011;28;1127;-73
2021/12/03 16:56:33;;;;;;;;;;;21.20;52.90;;;;;;4996606;28;1387;-72
2021/12/03 16:58:59;;;;;;;;;;;21.20;53.00;;;;;;5008024;28;1394;-72
2021/12/03 17:01:33;;;;;;;;;;;21.20;53.00;;;;;;5004021;28;1400;-72
2021/12/03 17:04:11;;;;;;;;;;;21.20;53.00;;;;;;4998763;28;1246;-71
2021/12/03 17:49:43;;;;;;;;;;;21.20;53.50;;;;;;5013046;28;1284;-70
2021/12/03 17:52:29;;;;;;;;;;;21.20;53.50;;;;;;5000493;28;1906;-71
2021/12/03 17:57:35;;;;;;;;;;;21.10;53.50;;;;;;5010007;28;1283;-71
2021/12/03 18:00:05;;;;;;;;;;;21.20;53.50;;;;;;5003987;28;1380;-71
2021/12/03 18:05:23;;;;;;;;;;;21.10;53.50;;;;;;5006110;28;1255;-71
2021/12/03 18:53:41;;;;;;;;;;;21.10;53.80;;;;;;5023435;28;1886;-68
2021/12/03 18:56:15;;;;;;;;;;;21.10;53.90;;;;;;5026824;28;1206;-68
2021/12/03 18:58:40;;;;;;;;;;;21.10;53.90;;;;;;5013800;28;1387;-68
2021/12/03 19:01:06;;;;;;;;;;;21.10;53.90;;;;;;5026498;28;1324;-69
2021/12/03 19:08:49;;;;;;;;;;;21.10;54.00;;;;;;5013694;28;1272;-69
2021/12/03 19:11:31;;;;;;;;;;;21.10;54.00;;;;;;5022662;28;1448;-68
2021/12/03 19:13:56;;;;;;;;;;;21.10;54.00;;;;;;5018541;28;1898;-68
2021/12/03 19:16:23;;;;;;;;;;;21.10;54.00;;;;;;5020444;28;1296;-67
2021/12/03 19:18:52;;;;;;;;;;;21.10;54.00;;;;;;5017998;28;1326;-67
2021/12/03 19:21:21;;;;;;;;;;;21.10;54.00;;;;;;5018425;28;1360;-67
2021/12/03 19:23:48;;;;;;;;;;;21.10;54.00;;;;;;5011550;28;1061;-69
2021/12/03 19:26:13;;;;;;;;;;;21.10;54.00;;;;;;5013168;28;1389;-69
2021/12/03 19:28:39;;;;;;;;;;;21.10;54.00;;;;;;5013281;28;1319;-69
2021/12/03 19:31:07;;;;;;;;;;;21.10;54.00;;;;;;5012545;28;1283;-70
2021/12/03 19:33:36;;;;;;;;;;;21.10;54.10;;;;;;5012855;28;1923;-71
2021/12/03 19:36:05;;;;;;;;;;;21.10;54.00;;;;;;5013079;28;1375;-70
2021/12/03 19:38:31;;;;;;;;;;;21.10;54.10;;;;;;5013219;28;1321;-71
2021/12/03 19:41:04;;;;;;;;;;;21.10;54.10;;;;;;5012518;28;1365;-70
2021/12/03 19:43:44;;;;;;;;;;;21.10;54.10;;;;;;5008893;28;1005;-71
2021/12/03 19:46:13;;;;;;;;;;;21.00;54.00;;;;;;5027093;28;1391;-74
2021/12/03 19:48:49;;;;;;;;;;;21.10;54.10;;;;;;5022671;28;1057;-71
2021/12/03 19:51:15;;;;;;;;;;;21.10;54.10;;;;;;5033198;28;1336;-71
2021/12/03 19:53:49;;;;;;;;;;;21.10;54.10;;;;;;5035160;28;1982;-72
2021/12/03 19:56:14;;;;;;;;;;;21.10;54.10;;;;;;5021772;28;1207;-73
2021/12/03 19:58:40;;;;;;;;;;;21.10;54.10;;;;;;5035140;28;1272;-72
2021/12/03 20:01:05;;;;;;;;;;;21.10;54.10;;;;;;5033417;28;1391;-71
2021/12/03 20:03:31;;;;;;;;;;;21.10;54.20;;;;;;5035317;28;1086;-73
2021/12/03 20:05:56;;;;;;;;;;;21.10;54.20;;;;;;5033471;28;1527;-73
2021/12/03 20:08:22;;;;;;;;;;;21.10;54.20;;;;;;5034883;28;1287;-72
2021/12/03 20:10:49;;;;;;;;;;;21.10;54.20;;;;;;5021024;28;1372;-72
2021/12/03 20:13:21;;;;;;;;;;;21.10;54.20;;;;;;5035144;28;1899;-72
2021/12/03 20:15:57;;;;;;;;;;;21.10;54.80;;;;;;5033358;28;1385;-72
2021/12/03 20:18:36;;;;;;;;;;;21.10;54.20;;;;;;5020839;28;1247;-72
2021/12/03 20:21:04;;;;;;;;;;;21.10;54.20;;;;;;5024355;28;1379;-71
2021/12/03 20:31:09;;;;;;;;;;;21.10;54.20;;;;;;5015744;28;1320;-72
2021/12/03 20:38:32;;;;;;;;;;;21.10;54.20;;;;;;5017024;28;1338;-72
2021/12/03 20:41:01;;;;;;;;;;;21.10;54.20;;;;;;5026971;28;1298;-72
2021/12/03 20:44:16;;;;;;;;;;;21.10;54.20;;;;;;5033065;28;1353;-72
2021/12/03 20:46:33;;;;;;;;;;;21.10;54.20;;;;;;5014423;28;1350;-70
2021/12/03 20:49:12;;;;;;;;;;;21.00;54.20;;;;;;5027740;28;1257;-70
2021/12/03 21:10:23;;;;;;;;;;;21.00;54.30;;;;;;5026843;28;1297;-69
2021/12/03 21:12:51;;;;;;;;;;;21.00;54.30;;;;;;5004722;28;1965;-69
2021/12/03 21:20:25;;;;;;;;;;;21.00;54.30;;;;;;5018579;28;1315;-68
2021/12/03 21:22:55;;;;;;;;;;;21.00;54.30;;;;;;5023153;28;1344;-68
2021/12/03 21:25:25;;;;;;;;;;;21.00;54.30;;;;;;5032593;28;1248;-68
2021/12/03 21:28:41;;;;;;;;;;;21.00;54.30;;;;;;5034065;28;1276;-68
2021/12/03 21:41:21;;;;;;;;;;;21.00;54.30;;;;;;5030785;28;1331;-69
2021/12/03 21:43:48;;;;;;;;;;;21.00;54.30;;;;;;5023180;28;1396;-68
2021/12/03 21:46:14;;;;;;;;;;;21.00;54.30;;;;;;5029744;28;1385;-68
2021/12/03 21:48:39;;;;;;;;;;;21.00;54.30;;;;;;5031022;28;1698;-68
2021/12/03 21:51:05;;;;;;;;;;;21.00;54.30;;;;;;5028733;28;1344;-68
2021/12/03 21:53:30;;;;;;;;;;;21.00;54.30;;;;;;5031876;28;1962;-69
2021/12/03 21:55:56;;;;;;;;;;;21.10;54.40;;;;;;5029408;28;1308;-69
2021/12/03 21:58:21;;;;;;;;;;;21.00;54.30;;;;;;5032222;28;1317;-68